sensor_id;sensor_type;location;lat;lon;timestamp;pressure;altitude;pressure_sealevel;temperature;humidity
46392;BME280;32098;49.448;7.904;2024-02-04T00:00:07;99229.09;;;8.40;94.31
46392;BME280;32098;49.448;7.904;2024-02-04T00:02:38;99224.31;;;8.35;94.06
46392;BME280;32098;49.448;7.904;2024-02-04T00:05:05;99213.34;;;8.38;93.87
46392;BME280;32098;49.448;7.904;2024-02-04T00:07:31;99205.66;;;8.29;94.26
46392;BME280;32098;49.448;7.904;2024-02-04T00:09:58;99227.03;;;8.27;94.72
46392;BME280;32098;49.448;7.904;2024-02-04T00:12:25;99225.97;;;8.36;95.09
46392;BME280;32098;49.448;7.904;2024-02-04T00:14:53;99231.94;;;8.38;94.24
46392;BME280;32098;49.448;7.904;2024-02-04T00:17:20;99239.19;;;8.44;93.83
46392;BME280;32098;49.448;7.904;2024-02-04T00:19:47;99195.19;;;8.27;94.25
46392;BME280;32098;49.448;7.904;2024-02-04T00:22:14;99222.69;;;8.34;94.89
46392;BME280;32098;49.448;7.904;2024-02-04T00:24:44;99218.09;;;8.28;95.43
46392;BME280;32098;49.448;7.904;2024-02-04T00:27:11;99133.13;;;7.76;95.67
46392;BME280;32098;49.448;7.904;2024-02-04T00:29:38;99225.22;;;8.28;96.01
46392;BME280;32098;49.448;7.904;2024-02-04T00:32:05;99223.56;;;8.27;95.30
46392;BME280;32098;49.448;7.904;2024-02-04T00:34:31;99226.34;;;8.33;95.59
46392;BME280;32098;49.448;7.904;2024-02-04T00:36:58;99232.00;;;8.30;95.71
46392;BME280;32098;49.448;7.904;2024-02-04T00:39:25;99225.06;;;8.29;96.17
46392;BME280;32098;49.448;7.904;2024-02-04T00:41:52;99223.50;;;8.35;96.26
46392;BME280;32098;49.448;7.904;2024-02-04T00:44:19;99219.75;;;8.29;96.09
46392;BME280;32098;49.448;7.904;2024-02-04T00:46:46;99200.59;;;8.19;96.41
46392;BME280;32098;49.448;7.904;2024-02-04T00:49:12;99195.28;;;8.19;97.42
46392;BME280;32098;49.448;7.904;2024-02-04T00:51:39;99217.25;;;8.28;97.14
46392;BME280;32098;49.448;7.904;2024-02-04T00:54:05;99204.88;;;8.20;97.12
46392;BME280;32098;49.448;7.904;2024-02-04T00:56:33;99212.97;;;8.27;97.03
46392;BME280;32098;49.448;7.904;2024-02-04T00:59:00;99221.38;;;8.30;97.14
46392;BME280;32098;49.448;7.904;2024-02-04T01:01:26;99228.63;;;8.36;96.90
46392;BME280;32098;49.448;7.904;2024-02-04T01:03:53;99225.97;;;8.36;96.37
46392;BME280;32098;49.448;7.904;2024-02-04T01:06:20;99212.53;;;8.38;96.55
46392;BME280;32098;49.448;7.904;2024-02-04T01:08:47;99219.19;;;8.34;96.23
46392;BME280;32098;49.448;7.904;2024-02-04T01:11:13;99212.78;;;8.28;96.61
46392;BME280;32098;49.448;7.904;2024-02-04T01:13:40;99233.66;;;8.31;96.70
46392;BME280;32098;49.448;7.904;2024-02-04T01:16:07;99223.50;;;8.35;97.71
46392;BME280;32098;49.448;7.904;2024-02-04T01:18:33;99225.69;;;8.31;97.57
46392;BME280;32098;49.448;7.904;2024-02-04T01:21:00;99227.84;;;8.28;97.80
46392;BME280;32098;49.448;7.904;2024-02-04T01:23:27;99212.88;;;8.12;97.63
46392;BME280;32098;49.448;7.904;2024-02-04T01:25:54;99222.16;;;8.16;98.74
46392;BME280;32098;49.448;7.904;2024-02-04T01:28:20;99208.13;;;8.08;99.24
46392;BME280;32098;49.448;7.904;2024-02-04T01:30:47;99224.47;;;8.19;98.57
46392;BME280;32098;49.448;7.904;2024-02-04T01:33:14;99212.53;;;8.15;98.92
46392;BME280;32098;49.448;7.904;2024-02-04T01:35:40;99203.59;;;8.16;99.16
46392;BME280;32098;49.448;7.904;2024-02-04T01:38:07;99209.44;;;8.12;99.02
46392;BME280;32098;49.448;7.904;2024-02-04T01:40:33;99202.28;;;8.12;99.13
46392;BME280;32098;49.448;7.904;2024-02-04T01:43:00;99208.31;;;8.06;99.91
46392;BME280;32098;49.448;7.904;2024-02-04T01:45:27;99213.56;;;8.14;99.23
46392;BME280;32098;49.448;7.904;2024-02-04T01:47:54;99212.88;;;8.12;99.21
46392;BME280;32098;49.448;7.904;2024-02-04T01:50:21;99214.66;;;8.20;99.28
46392;BME280;32098;49.448;7.904;2024-02-04T01:52:49;99219.84;;;8.13;99.24
46392;BME280;32098;49.448;7.904;2024-02-04T01:55:17;99204.81;;;8.06;98.89
46392;BME280;32098;49.448;7.904;2024-02-04T01:57:47;99214.75;;;8.12;98.94
46392;BME280;32098;49.448;7.904;2024-02-04T02:00:15;99188.13;;;7.97;98.84
46392;BME280;32098;49.448;7.904;2024-02-04T02:02:42;99219.75;;;8.07;99.36
46392;BME280;32098;49.448;7.904;2024-02-04T02:05:10;99215.09;;;8.09;99.40
46392;BME280;32098;49.448;7.904;2024-02-04T02:07:37;99223.03;;;8.09;99.21
46392;BME280;32098;49.448;7.904;2024-02-04T02:10:04;99206.00;;;8.03;99.25
46392;BME280;32098;49.448;7.904;2024-02-04T02:12:43;99206.03;;;7.95;99.75
46392;BME280;32098;49.448;7.904;2024-02-04T02:15:21;99203.69;;;8.00;99.70
46392;BME280;32098;49.448;7.904;2024-02-04T02:18:20;99213.25;;;8.09;99.18
46392;BME280;32098;49.448;7.904;2024-02-04T02:21:04;99206.34;;;8.00;99.27
46392;BME280;32098;49.448;7.904;2024-02-04T02:23:40;99180.25;;;7.89;100.00
46392;BME280;32098;49.448;7.904;2024-02-04T02:26:10;99183.56;;;7.91;99.95
46392;BME280;32098;49.448;7.904;2024-02-04T02:28:36;99150.06;;;7.67;100.00
46392;BME280;32098;49.448;7.904;2024-02-04T02:31:03;99173.28;;;7.88;100.00
46392;BME280;32098;49.448;7.904;2024-02-04T02:33:33;99179.88;;;7.92;100.00
46392;BME280;32098;49.448;7.904;2024-02-04T02:36:02;99178.94;;;7.85;100.00
46392;BME280;32098;49.448;7.904;2024-02-04T02:38:59;99193.13;;;7.92;100.00
46392;BME280;32098;49.448;7.904;2024-02-04T02:41:29;99189.31;;;7.94;100.00
46392;BME280;32098;49.448;7.904;2024-02-04T02:43:57;99191.31;;;7.92;100.00
46392;BME280;32098;49.448;7.904;2024-02-04T02:46:26;99193.44;;;7.97;100.00
46392;BME280;32098;49.448;7.904;2024-02-04T02:48:53;99185.66;;;7.95;100.00
46392;BME280;32098;49.448;7.904;2024-02-04T02:51:20;99164.22;;;7.82;100.00
46392;BME280;32098;49.448;7.904;2024-02-04T02:53:47;99177.22;;;7.92;100.00
46392;BME280;32098;49.448;7.904;2024-02-04T02:56:13;99158.28;;;7.80;100.00
46392;BME280;32098;49.448;7.904;2024-02-04T02:58:40;99180.19;;;7.97;99.37
46392;BME280;32098;49.448;7.904;2024-02-04T03:01:07;99177.91;;;7.94;99.81
46392;BME280;32098;49.448;7.904;2024-02-04T03:03:33;99177.72;;;7.95;99.68
46392;BME280;32098;49.448;7.904;2024-02-04T03:06:00;99182.38;;;7.93;100.00
46392;BME280;32098;49.448;7.904;2024-02-04T03:08:27;99167.94;;;7.96;99.99
46392;BME280;32098;49.448;7.904;2024-02-04T03:10:54;99177.19;;;8.00;99.90
46392;BME280;32098;49.448;7.904;2024-02-04T03:13:21;99171.19;;;8.06;99.70
46392;BME280;32098;49.448;7.904;2024-02-04T03:15:48;99171.34;;;8.04;99.63
46392;BME280;32098;49.448;7.904;2024-02-04T03:18:15;99065.41;;;7.51;99.02
46392;BME280;32098;49.448;7.904;2024-02-04T03:20:41;99148.84;;;8.00;99.42
46392;BME280;32098;49.448;7.904;2024-02-04T03:23:08;99152.69;;;7.98;99.71
46392;BME280;32098;49.448;7.904;2024-02-04T03:25:35;99160.56;;;8.06;99.09
46392;BME280;32098;49.448;7.904;2024-02-04T03:28:02;99145.91;;;7.95;99.05
46392;BME280;32098;49.448;7.904;2024-02-04T03:30:30;99163.22;;;8.06;98.76
46392;BME280;32098;49.448;7.904;2024-02-04T03:32:56;99099.44;;;7.62;98.32
46392;BME280;32098;49.448;7.904;2024-02-04T03:35:23;99174.97;;;8.12;98.35
46392;BME280;32098;49.448;7.904;2024-02-04T03:37:50;99171.75;;;8.16;99.02
46392;BME280;32098;49.448;7.904;2024-02-04T03:40:17;99180.72;;;8.15;98.86
46392;BME280;32098;49.448;7.904;2024-02-04T03:42:45;99179.78;;;8.08;98.36
46392;BME280;32098;49.448;7.904;2024-02-04T03:45:12;99174.22;;;8.18;98.49
46392;BME280;32098;49.448;7.904;2024-02-04T03:47:39;99172.47;;;8.10;98.55
46392;BME280;32098;49.448;7.904;2024-02-04T03:50:06;99165.53;;;8.09;98.40
46392;BME280;32098;49.448;7.904;2024-02-04T03:52:33;99172.66;;;8.09;98.67
46392;BME280;32098;49.448;7.904;2024-02-04T03:54:59;99169.53;;;8.05;98.82
46392;BME280;32098;49.448;7.904;2024-02-04T03:57:29;99171.13;;;8.14;98.61
46392;BME280;32098;49.448;7.904;2024-02-04T03:59:55;99162.22;;;8.07;98.55
46392;BME280;32098;49.448;7.904;2024-02-04T04:02:22;99163.38;;;8.04;99.20
46392;BME280;32098;49.448;7.904;2024-02-04T04:04:48;99161.69;;;8.12;98.93
46392;BME280;32098;49.448;7.904;2024-02-04T04:07:15;99165.63;;;8.16;98.69
46392;BME280;32098;49.448;7.904;2024-02-04T04:09:42;99164.63;;;8.17;98.68
46392;BME280;32098;49.448;7.904;2024-02-04T04:12:09;99162.16;;;8.15;99.06
46392;BME280;32098;49.448;7.904;2024-02-04T04:14:36;99168.63;;;8.13;98.94
46392;BME280;32098;49.448;7.904;2024-02-04T04:17:02;99162.34;;;8.14;98.60
46392;BME280;32098;49.448;7.904;2024-02-04T04:19:29;99161.84;;;8.10;98.73
46392;BME280;32098;49.448;7.904;2024-02-04T04:21:56;99165.03;;;8.06;99.12
46392;BME280;32098;49.448;7.904;2024-02-04T04:24:23;99171.53;;;8.03;99.36
46392;BME280;32098;49.448;7.904;2024-02-04T04:26:50;99180.75;;;8.07;99.48
46392;BME280;32098;49.448;7.904;2024-02-04T04:29:16;99178.78;;;8.09;98.92
46392;BME280;32098;49.448;7.904;2024-02-04T04:31:43;99171.19;;;8.06;99.09
46392;BME280;32098;49.448;7.904;2024-02-04T04:34:10;99155.72;;;7.87;99.54
46392;BME280;32098;49.448;7.904;2024-02-04T04:36:37;99188.03;;;8.13;99.66
46392;BME280;32098;49.448;7.904;2024-02-04T04:39:03;99189.22;;;8.11;99.08
46392;BME280;32098;49.448;7.904;2024-02-04T04:41:30;99160.00;;;7.96;98.97
46392;BME280;32098;49.448;7.904;2024-02-04T04:43:56;99186.38;;;8.12;99.20
46392;BME280;32098;49.448;7.904;2024-02-04T04:46:23;99164.28;;;7.97;99.26
46392;BME280;32098;49.448;7.904;2024-02-04T04:48:50;99187.97;;;7.98;99.76
46392;BME280;32098;49.448;7.904;2024-02-04T04:51:16;99175.56;;;7.99;99.69
46392;BME280;32098;49.448;7.904;2024-02-04T04:53:44;99184.50;;;7.98;99.90
46392;BME280;32098;49.448;7.904;2024-02-04T04:56:11;99177.06;;;7.93;99.64
46392;BME280;32098;49.448;7.904;2024-02-04T04:58:37;99186.97;;;7.99;99.84
46392;BME280;32098;49.448;7.904;2024-02-04T05:01:04;99190.09;;;8.03;99.73
46392;BME280;32098;49.448;7.904;2024-02-04T05:03:32;99187.44;;;8.03;99.88
46392;BME280;32098;49.448;7.904;2024-02-04T05:05:59;99156.09;;;7.84;99.53
46392;BME280;32098;49.448;7.904;2024-02-04T05:08:27;99178.50;;;8.04;99.40
46392;BME280;32098;49.448;7.904;2024-02-04T05:10:54;99178.69;;;7.94;99.58
46392;BME280;32098;49.448;7.904;2024-02-04T05:13:20;99181.16;;;8.04;99.60
46392;BME280;32098;49.448;7.904;2024-02-04T05:15:47;99189.09;;;8.04;98.70
46392;BME280;32098;49.448;7.904;2024-02-04T05:18:13;99089.09;;;7.45;98.52
46392;BME280;32098;49.448;7.904;2024-02-04T05:20:40;99191.47;;;7.99;98.75
46392;BME280;32098;49.448;7.904;2024-02-04T05:23:07;99170.06;;;8.00;98.90
46392;BME280;32098;49.448;7.904;2024-02-04T05:25:34;99159.25;;;8.02;98.31
46392;BME280;32098;49.448;7.904;2024-02-04T05:28:01;99166.13;;;7.96;98.20
46392;BME280;32098;49.448;7.904;2024-02-04T05:30:28;99176.25;;;7.93;98.58
46392;BME280;32098;49.448;7.904;2024-02-04T05:32:55;99177.06;;;7.93;98.51
46392;BME280;32098;49.448;7.904;2024-02-04T05:35:21;99171.44;;;7.96;98.15
46392;BME280;32098;49.448;7.904;2024-02-04T05:37:48;99169.66;;;7.89;98.58
46392;BME280;32098;49.448;7.904;2024-02-04T05:40:15;99172.59;;;7.94;98.59
46392;BME280;32098;49.448;7.904;2024-02-04T05:42:44;99162.28;;;7.99;98.77
46392;BME280;32098;49.448;7.904;2024-02-04T05:45:10;99170.25;;;7.99;98.02
46392;BME280;32098;49.448;7.904;2024-02-04T05:47:37;99168.59;;;7.98;98.29
46392;BME280;32098;49.448;7.904;2024-02-04T05:50:04;99163.28;;;7.98;97.98
46392;BME280;32098;49.448;7.904;2024-02-04T05:52:32;99162.34;;;7.91;97.89
46392;BME280;32098;49.448;7.904;2024-02-04T05:54:58;99177.59;;;7.89;98.04
46392;BME280;32098;49.448;7.904;2024-02-04T05:57:30;99186.75;;;7.86;98.86
46392;BME280;32098;49.448;7.904;2024-02-04T05:59:57;99178.84;;;7.78;99.08
46392;BME280;32098;49.448;7.904;2024-02-04T06:02:25;99190.38;;;7.85;98.43
46392;BME280;32098;49.448;7.904;2024-02-04T06:04:53;99174.81;;;7.82;98.43
46392;BME280;32098;49.448;7.904;2024-02-04T06:07:19;99200.16;;;7.85;97.99
46392;BME280;32098;49.448;7.904;2024-02-04T06:09:46;99183.53;;;7.68;97.80
46392;BME280;32098;49.448;7.904;2024-02-04T06:12:13;99089.25;;;7.20;98.29
46392;BME280;32098;49.448;7.904;2024-02-04T06:14:40;99189.88;;;7.82;98.16
46392;BME280;32098;49.448;7.904;2024-02-04T06:17:07;99179.28;;;7.82;98.44
46392;BME280;32098;49.448;7.904;2024-02-04T06:19:34;99181.94;;;7.82;98.15
46392;BME280;32098;49.448;7.904;2024-02-04T06:22:02;99184.78;;;7.80;98.09
46392;BME280;32098;49.448;7.904;2024-02-04T06:24:28;99173.03;;;7.75;98.28
46392;BME280;32098;49.448;7.904;2024-02-04T06:26:55;99178.84;;;7.78;98.21
46392;BME280;32098;49.448;7.904;2024-02-04T06:29:22;99180.13;;;7.82;97.96
46392;BME280;32098;49.448;7.904;2024-02-04T06:31:48;99170.00;;;7.86;97.86
46392;BME280;32098;49.448;7.904;2024-02-04T06:34:15;99148.50;;;7.81;97.77
46392;BME280;32098;49.448;7.904;2024-02-04T06:36:43;99161.03;;;7.87;98.15
46392;BME280;32098;49.448;7.904;2024-02-04T06:39:11;99156.09;;;7.84;98.14
46392;BME280;32098;49.448;7.904;2024-02-04T06:41:37;99146.72;;;7.73;98.22
46392;BME280;32098;49.448;7.904;2024-02-04T06:44:04;99155.81;;;7.79;98.38
46392;BME280;32098;49.448;7.904;2024-02-04T06:46:31;99156.78;;;7.78;98.62
46392;BME280;32098;49.448;7.904;2024-02-04T06:48:58;99164.06;;;7.84;98.02
46392;BME280;32098;49.448;7.904;2024-02-04T06:51:24;99156.09;;;7.84;98.31
46392;BME280;32098;49.448;7.904;2024-02-04T06:53:51;99147.03;;;7.78;98.33
46392;BME280;32098;49.448;7.904;2024-02-04T06:56:18;99163.38;;;7.82;98.81
46392;BME280;32098;49.448;7.904;2024-02-04T06:58:44;99164.06;;;7.84;98.53
46392;BME280;32098;49.448;7.904;2024-02-04T07:01:11;99168.03;;;7.80;98.62
46392;BME280;32098;49.448;7.904;2024-02-04T07:03:38;99160.09;;;7.80;98.56
46392;BME280;32098;49.448;7.904;2024-02-04T07:06:05;99151.19;;;7.73;98.63
46392;BME280;32098;49.448;7.904;2024-02-04T07:08:32;99071.69;;;7.19;98.93
46392;BME280;32098;49.448;7.904;2024-02-04T07:10:59;99159.78;;;7.75;99.35
46392;BME280;32098;49.448;7.904;2024-02-04T07:13:26;99160.09;;;7.80;99.41
46392;BME280;32098;49.448;7.904;2024-02-04T07:15:52;99164.75;;;7.78;98.67
46392;BME280;32098;49.448;7.904;2024-02-04T07:18:20;99177.66;;;7.81;98.78
46392;BME280;32098;49.448;7.904;2024-02-04T07:20:48;99176.00;;;7.80;98.66
46392;BME280;32098;49.448;7.904;2024-02-04T07:23:15;99173.03;;;7.75;98.89
46392;BME280;32098;49.448;7.904;2024-02-04T07:25:42;99164.78;;;7.70;99.46
46392;BME280;32098;49.448;7.904;2024-02-04T07:28:09;99170.44;;;7.67;99.55
46392;BME280;32098;49.448;7.904;2024-02-04T07:30:36;99173.19;;;7.81;99.08
46392;BME280;32098;49.448;7.904;2024-02-04T07:33:03;99171.19;;;7.83;98.66
46392;BME280;32098;49.448;7.904;2024-02-04T07:35:29;99176.19;;;7.78;99.07
46392;BME280;32098;49.448;7.904;2024-02-04T07:37:56;99170.69;;;7.80;98.63
46392;BME280;32098;49.448;7.904;2024-02-04T07:40:22;99165.03;;;7.83;98.87
46392;BME280;32098;49.448;7.904;2024-02-04T07:42:49;99170.03;;;7.78;98.71
46392;BME280;32098;49.448;7.904;2024-02-04T07:45:16;99166.03;;;7.82;98.94
46392;BME280;32098;49.448;7.904;2024-02-04T07:47:42;99170.56;;;7.73;99.06
46392;BME280;32098;49.448;7.904;2024-02-04T07:50:09;99163.81;;;7.71;99.27
46392;BME280;32098;49.448;7.904;2024-02-04T07:52:36;99171.63;;;7.64;99.70
46392;BME280;32098;49.448;7.904;2024-02-04T07:55:03;99153.59;;;7.60;100.00
46392;BME280;32098;49.448;7.904;2024-02-04T07:57:29;99156.88;;;7.62;100.00
46392;BME280;32098;49.448;7.904;2024-02-04T07:59:56;99153.97;;;7.57;100.00
46392;BME280;32098;49.448;7.904;2024-02-04T08:02:24;99167.28;;;7.71;100.00
46392;BME280;32098;49.448;7.904;2024-02-04T08:04:51;99172.09;;;7.68;100.00
46392;BME280;32098;49.448;7.904;2024-02-04T08:07:17;99175.41;;;7.70;99.78
46392;BME280;32098;49.448;7.904;2024-02-04T08:09:45;99175.84;;;7.81;99.23
46392;BME280;32098;49.448;7.904;2024-02-04T08:12:11;99171.53;;;7.80;99.24
46392;BME280;32098;49.448;7.904;2024-02-04T08:14:39;99165.53;;;7.86;99.30
46392;BME280;32098;49.448;7.904;2024-02-04T08:17:06;99159.44;;;7.78;98.84
46392;BME280;32098;49.448;7.904;2024-02-04T08:19:33;99166.56;;;7.77;98.58
46392;BME280;32098;49.448;7.904;2024-02-04T08:22:00;99177.13;;;7.85;98.70
46392;BME280;32098;49.448;7.904;2024-02-04T08:24:27;99176.94;;;7.87;98.08
46392;BME280;32098;49.448;7.904;2024-02-04T08:26:56;99170.69;;;7.80;98.26
46392;BME280;32098;49.448;7.904;2024-02-04T08:29:22;99166.41;;;7.79;98.39
46392;BME280;32098;49.448;7.904;2024-02-04T08:31:49;99170.25;;;7.76;98.34
46392;BME280;32098;49.448;7.904;2024-02-04T08:34:15;99188.59;;;7.78;98.58
46392;BME280;32098;49.448;7.904;2024-02-04T08:36:42;99189.19;;;7.88;97.87
46392;BME280;32098;49.448;7.904;2024-02-04T08:39:09;99183.56;;;7.91;97.82
46392;BME280;32098;49.448;7.904;2024-02-04T08:41:36;99165.63;;;7.93;97.44
46392;BME280;32098;49.448;7.904;2024-02-04T08:44:02;99132.66;;;7.73;97.18
46392;BME280;32098;49.448;7.904;2024-02-04T08:46:30;99165.97;;;7.90;97.39
46392;BME280;32098;49.448;7.904;2024-02-04T08:48:56;99171.88;;;8.00;97.63
46392;BME280;32098;49.448;7.904;2024-02-04T08:51:23;99188.28;;;8.03;97.32
46392;BME280;32098;49.448;7.904;2024-02-04T08:53:51;99181.44;;;7.86;96.68
46392;BME280;32098;49.448;7.904;2024-02-04T08:56:18;99184.09;;;7.86;96.68
46392;BME280;32098;49.448;7.904;2024-02-04T08:58:45;99180.91;;;7.91;97.06
46392;BME280;32098;49.448;7.904;2024-02-04T09:01:12;99171.88;;;7.77;96.62
46392;BME280;32098;49.448;7.904;2024-02-04T09:03:39;99184.38;;;7.69;96.76
46392;BME280;32098;49.448;7.904;2024-02-04T09:06:05;99199.16;;;7.86;96.62
46392;BME280;32098;49.448;7.904;2024-02-04T09:08:32;99203.09;;;7.90;97.08
46392;BME280;32098;49.448;7.904;2024-02-04T09:10:58;99163.16;;;7.69;96.68
46392;BME280;32098;49.448;7.904;2024-02-04T09:13:25;99187.19;;;7.90;96.90
46392;BME280;32098;49.448;7.904;2024-02-04T09:15:52;99194.09;;;7.99;96.71
46392;BME280;32098;49.448;7.904;2024-02-04T09:18:20;99205.81;;;8.04;96.71
46392;BME280;32098;49.448;7.904;2024-02-04T09:20:47;99078.75;;;7.35;95.87
46392;BME280;32098;49.448;7.904;2024-02-04T09:23:15;99197.94;;;7.96;96.26
46392;BME280;32098;49.448;7.904;2024-02-04T09:25:41;99190.44;;;8.00;96.55
46392;BME280;32098;49.448;7.904;2024-02-04T09:28:08;99191.56;;;8.06;96.26
46392;BME280;32098;49.448;7.904;2024-02-04T09:30:34;99186.16;;;7.99;96.32
46392;BME280;32098;49.448;7.904;2024-02-04T09:33:01;99090.16;;;7.35;96.25
46392;BME280;32098;49.448;7.904;2024-02-04T09:35:28;99184.38;;;7.91;97.39
46392;BME280;32098;49.448;7.904;2024-02-04T09:37:55;99179.28;;;8.04;98.89
46392;BME280;32098;49.448;7.904;2024-02-04T09:40:22;99182.81;;;8.20;98.34
46392;BME280;32098;49.448;7.904;2024-02-04T09:42:49;99175.06;;;8.18;97.48
46392;BME280;32098;49.448;7.904;2024-02-04T09:45:16;99184.00;;;8.17;97.09
46392;BME280;32098;49.448;7.904;2024-02-04T09:47:45;99186.59;;;8.02;97.50
46392;BME280;32098;49.448;7.904;2024-02-04T09:50:12;99180.59;;;8.09;97.61
46392;BME280;32098;49.448;7.904;2024-02-04T09:52:43;99169.22;;;8.00;97.64
46392;BME280;32098;49.448;7.904;2024-02-04T09:55:15;99172.72;;;8.00;98.31
46392;BME280;32098;49.448;7.904;2024-02-04T09:57:43;99162.22;;;8.07;98.18
46392;BME280;32098;49.448;7.904;2024-02-04T10:00:11;99126.41;;;7.88;97.98
46392;BME280;32098;49.448;7.904;2024-02-04T10:02:41;99144.66;;;7.83;98.58
46392;BME280;32098;49.448;7.904;2024-02-04T10:05:08;99157.63;;;8.01;98.29
46392;BME280;32098;49.448;7.904;2024-02-04T10:07:37;99148.78;;;8.09;98.68
46392;BME280;32098;49.448;7.904;2024-02-04T10:10:05;99160.38;;;8.08;98.22
46392;BME280;32098;49.448;7.904;2024-02-04T10:12:33;99152.78;;;7.82;98.01
46392;BME280;32098;49.448;7.904;2024-02-04T10:15:02;99165.28;;;7.96;98.23
46392;BME280;32098;49.448;7.904;2024-02-04T10:17:32;99178.13;;;8.07;98.22
46392;BME280;32098;49.448;7.904;2024-02-04T10:20:00;99183.91;;;8.11;97.39
46392;BME280;32098;49.448;7.904;2024-02-04T10:22:27;99187.03;;;8.14;97.46
46392;BME280;32098;49.448;7.904;2024-02-04T10:25:07;99175.56;;;7.99;97.36
46392;BME280;32098;49.448;7.904;2024-02-04T10:27:35;99188.72;;;8.07;97.14
46392;BME280;32098;49.448;7.904;2024-02-04T10:30:04;99204.63;;;8.07;97.23
46392;BME280;32098;49.448;7.904;2024-02-04T10:32:31;99166.47;;;7.93;97.36
46392;BME280;32098;49.448;7.904;2024-02-04T10:34:58;99195.00;;;8.14;96.67
46392;BME280;32098;49.448;7.904;2024-02-04T10:37:26;99194.31;;;8.12;96.33
46392;BME280;32098;49.448;7.904;2024-02-04T10:39:56;99183.84;;;7.96;97.27
46392;BME280;32098;49.448;7.904;2024-02-04T10:42:27;99185.19;;;7.92;97.50
46392;BME280;32098;49.448;7.904;2024-02-04T10:44:54;99172.13;;;7.90;98.27
46392;BME280;32098;49.448;7.904;2024-02-04T10:47:30;99162.34;;;7.91;98.02
46392;BME280;32098;49.448;7.904;2024-02-04T10:50:02;99176.72;;;7.96;97.41
46392;BME280;32098;49.448;7.904;2024-02-04T10:52:36;99165.28;;;7.96;97.34
46392;BME280;32098;49.448;7.904;2024-02-04T10:55:07;99156.09;;;7.84;98.14
46392;BME280;32098;49.448;7.904;2024-02-04T10:57:34;99156.44;;;7.81;98.39
46392;BME280;32098;49.448;7.904;2024-02-04T11:00:02;99144.91;;;7.74;98.43
46392;BME280;32098;49.448;7.904;2024-02-04T11:02:35;99131.75;;;7.80;98.05
46392;BME280;32098;49.448;7.904;2024-02-04T11:05:05;99171.72;;;8.01;97.89
46392;BME280;32098;49.448;7.904;2024-02-04T11:07:33;99184.50;;;7.98;98.15
46392;BME280;32098;49.448;7.904;2024-02-04T11:10:01;99176.84;;;8.03;98.05
46392;BME280;32098;49.448;7.904;2024-02-04T11:12:30;99175.00;;;8.03;98.33
46392;BME280;32098;49.448;7.904;2024-02-04T11:15:01;99178.25;;;8.14;97.57
46392;BME280;32098;49.448;7.904;2024-02-04T11:17:51;99175.94;;;8.11;98.16
46392;BME280;32098;49.448;7.904;2024-02-04T11:20:46;99157.97;;;8.21;97.48
46392;BME280;32098;49.448;7.904;2024-02-04T11:26:11;99134.41;;;8.03;98.43
46392;BME280;32098;49.448;7.904;2024-02-04T11:28:39;99140.69;;;8.02;97.95
46392;BME280;32098;49.448;7.904;2024-02-04T11:31:14;99087.25;;;7.76;97.73
46392;BME280;32098;49.448;7.904;2024-02-04T11:33:41;99132.03;;;8.08;98.06
46392;BME280;32098;49.448;7.904;2024-02-04T11:36:13;99123.25;;;8.08;97.40
46392;BME280;32098;49.448;7.904;2024-02-04T11:38:40;99120.66;;;7.99;97.62
46392;BME280;32098;49.448;7.904;2024-02-04T11:41:07;99120.97;;;8.04;98.00
46392;BME280;32098;49.448;7.904;2024-02-04T11:43:36;99115.31;;;8.08;97.36
46392;BME280;32098;49.448;7.904;2024-02-04T11:46:04;99125.38;;;8.12;97.62
46392;BME280;32098;49.448;7.904;2024-02-04T11:48:34;99081.00;;;7.91;97.31
46392;BME280;32098;49.448;7.904;2024-02-04T11:51:03;99114.69;;;8.20;97.43
46392;BME280;32098;49.448;7.904;2024-02-04T11:53:31;99107.66;;;8.27;96.65
46392;BME280;32098;49.448;7.904;2024-02-04T11:56:01;99081.31;;;8.11;97.15
46392;BME280;32098;49.448;7.904;2024-02-04T11:58:30;99106.66;;;8.28;96.49
46392;BME280;32098;49.448;7.904;2024-02-04T12:00:58;99100.50;;;8.13;97.07
46392;BME280;32098;49.448;7.904;2024-02-04T12:03:31;99104.34;;;8.11;98.50
46392;BME280;32098;49.448;7.904;2024-02-04T12:05:59;99106.72;;;8.06;98.37
46392;BME280;32098;49.448;7.904;2024-02-04T12:08:30;99103.81;;;8.15;98.22
46392;BME280;32098;49.448;7.904;2024-02-04T12:10:59;99107.09;;;8.17;98.51
46392;BME280;32098;49.448;7.904;2024-02-04T12:13:28;99082.31;;;8.10;98.30
46392;BME280;32098;49.448;7.904;2024-02-04T12:15:55;99090.59;;;8.07;98.78
46392;BME280;32098;49.448;7.904;2024-02-04T12:18:22;99093.47;;;8.20;98.24
46392;BME280;32098;49.448;7.904;2024-02-04T12:20:49;99086.00;;;8.24;98.63
46392;BME280;32098;49.448;7.904;2024-02-04T12:23:19;99076.84;;;8.26;98.76
46392;BME280;32098;49.448;7.904;2024-02-04T12:25:47;99077.28;;;8.30;98.64
46392;BME280;32098;49.448;7.904;2024-02-04T12:28:14;99081.06;;;8.35;98.29
46392;BME280;32098;49.448;7.904;2024-02-04T12:30:41;99076.50;;;8.29;98.75
46392;BME280;32098;49.448;7.904;2024-02-04T12:33:18;99085.53;;;8.35;99.30
46392;BME280;32098;49.448;7.904;2024-02-04T12:35:49;99072.09;;;8.36;99.47
46392;BME280;32098;49.448;7.904;2024-02-04T12:38:16;99078.34;;;8.43;98.82
46392;BME280;32098;49.448;7.904;2024-02-04T12:40:46;98981.06;;;7.92;98.75
46392;BME280;32098;49.448;7.904;2024-02-04T12:43:12;99063.69;;;8.47;98.13
46392;BME280;32098;49.448;7.904;2024-02-04T12:45:39;99062.69;;;8.48;98.26
46392;BME280;32098;49.448;7.904;2024-02-04T12:48:08;99054.72;;;8.48;98.56
46392;BME280;32098;49.448;7.904;2024-02-04T12:50:37;99044.28;;;8.47;97.83
46392;BME280;32098;49.448;7.904;2024-02-04T12:53:08;99067.06;;;8.56;97.82
46392;BME280;32098;49.448;7.904;2024-02-04T12:55:38;99063.88;;;8.60;98.26
46392;BME280;32098;49.448;7.904;2024-02-04T13:00:34;99037.25;;;8.54;99.08
46392;BME280;32098;49.448;7.904;2024-02-04T13:03:05;99043.09;;;8.64;98.64
46392;BME280;32098;49.448;7.904;2024-02-04T13:05:32;99023.53;;;8.50;98.17
46392;BME280;32098;49.448;7.904;2024-02-04T13:08:00;99043.91;;;8.64;97.36
46392;BME280;32098;49.448;7.904;2024-02-04T13:10:33;99038.88;;;8.69;97.28
46392;BME280;32098;49.448;7.904;2024-02-04T13:13:07;99037.88;;;8.71;97.80
46392;BME280;32098;49.448;7.904;2024-02-04T13:15:43;99036.22;;;8.69;97.59
46392;BME280;32098;49.448;7.904;2024-02-04T13:18:10;99009.72;;;8.40;97.83